Latest Weather Observations for Perisher Valley

IDN60801

Issued at 9:03 pm EST Wednesday 27 July 2016 (issued every 30 minutes, with the page automatically refreshed every 10 minutes)

About weather observations | Map of weather stations | Latest weather observations for NSW | Other Formats
Station Details ID: 071075 Name: PERISHER VALLEY AWS Lat: -36.41 Lon: 148.41 Height: 1738.0 m
Data from the previous 72 hours. | See also: Recent months at Perisher Valley
Date/Time
EST
Temp
°C
App
Temp
°C
Dew
Point
°C
Rel
Hum
%
Delta-T
°C
Wind Press
QNH
hPa
Press
MSL
hPa
Rain since
9am
mm
Dir  Spd
km/h
Gust
km/h
Spd
kts
Gust
kts
27/09:00pm -1.2 -8.0 -2.2 93 0.3 WSW 24 43 13 23 - - 5.8
27/08:30pm -1.4 -9.8 -2.4 93 0.3 W 32 54 17 29 - - 5.8
27/08:00pm -1.3 -9.9 -2.3 93 0.3 WNW 33 52 18 28 - - 5.8
27/07:32pm -1.0 -8.6 -2.0 93 0.3 W 28 59 15 32 - - 5.6
27/07:30pm -0.9 -7.7 -1.9 93 0.3 W 24 59 13 32 - - 5.6
27/07:00pm -0.6 -6.6 -1.4 94 0.3 W 20 41 11 22 - - 5.4
27/06:42pm -1.0 -8.6 -1.8 94 0.3 W 28 54 15 29 - - 5.0
27/06:30pm -0.8 -7.9 -1.4 96 0.2 W 26 46 14 25 - - 5.0
27/06:05pm -0.9 -9.2 -1.5 96 0.2 W 32 50 17 27 - - 4.6
27/06:00pm -0.8 -9.1 -1.4 96 0.2 W 32 48 17 26 - - 4.4
27/05:30pm -0.9 -9.8 -1.6 95 0.2 W 35 57 19 31 - - 4.2
27/05:00pm -0.9 -9.8 -1.6 95 0.2 W 35 56 19 30 - - 4.0
27/04:32pm -0.8 -9.3 -1.5 95 0.2 W 33 54 18 29 - - 3.8
27/04:30pm -0.8 -9.6 -1.5 95 0.2 W 35 52 19 28 - - 3.8
27/04:00pm -0.8 -9.7 -1.8 93 0.3 WNW 35 57 19 31 - - 3.4
27/03:40pm -0.5 -8.0 -1.5 93 0.4 WNW 28 46 15 25 - - 3.4
27/03:30pm -0.4 -5.8 -1.5 92 0.4 W 17 32 9 17 - - 3.4
27/03:00pm -0.3 -6.1 -1.7 90 0.5 W 19 35 10 19 - - 3.0
27/02:30pm 0.1 -5.0 -1.8 87 0.7 WSW 15 35 8 19 - - 3.0
27/02:00pm 0.4 -4.6 -1.5 87 0.8 WSW 15 35 8 19 - - 3.0
27/01:30pm 0.6 -2.8 -0.8 90 0.6 W 7 19 4 10 - - 3.0
27/01:00pm 0.3 -4.3 -1.1 90 0.6 WNW 13 32 7 17 - - 3.0
27/12:30pm 0.2 -3.6 -0.9 92 0.4 W 9 19 5 10 - - 3.0
27/12:00pm 0.0 -4.6 -1.0 93 0.4 WSW 13 24 7 13 - - 3.0
27/11:30am -0.1 -5.5 -1.1 93 0.4 W 17 28 9 15 - - 2.8
27/11:00am -0.4 -7.5 -1.2 94 0.3 W 26 43 14 23 - - 2.6
27/10:30am -0.9 -6.9 -1.7 94 0.3 W 20 37 11 20 - - 2.6
27/10:01am -1.2 -8.8 -1.9 95 0.2 W 28 46 15 25 - - 2.2
27/10:00am -1.3 -9.2 -1.9 96 0.2 W 30 46 16 25 - - 2.2
27/09:30am -1.2 -6.7 -1.8 96 0.2 W 17 41 9 22 - - 1.6
27/09:00am -1.1 -6.9 -1.7 96 0.2 W 19 46 10 25 - - 14.2
27/08:30am -1.3 -8.5 -1.9 96 0.2 WNW 26 50 14 27 - - 12.8
27/08:00am -1.4 -10.3 -2.0 96 0.2 WNW 35 57 19 31 - - 12.0
27/07:30am -1.7 -9.3 -2.3 96 0.1 W 28 61 15 33 - - 11.4
27/07:07am -1.6 -9.2 -2.2 96 0.1 W 28 63 15 34 - - 11.2
27/07:00am -1.7 -7.8 -2.3 96 0.1 W 20 46 11 25 - - 11.0
27/06:30am -2.0 -11.4 -2.6 96 0.1 W 37 69 20 37 - - 10.4
27/06:00am -1.9 -13.0 -2.5 96 0.1 WNW 46 69 25 37 - - 10.0
27/05:39am -1.9 -12.4 -2.5 96 0.1 W 43 76 23 41 - - 9.6
27/05:30am -1.9 -9.6 -2.6 95 0.2 W 28 52 15 28 - - 9.2
27/05:28am -1.9 -9.6 -2.6 95 0.2 W 28 52 15 28 - - 9.2
27/05:00am -2.1 -7.3 -2.9 94 0.2 W 15 33 8 18 - - 8.4
27/04:30am -2.1 -6.6 -2.9 94 0.2 W 11 22 6 12 - - 7.4
27/04:00am -1.9 -6.0 -2.7 94 0.2 WSW 9 28 5 15 - - 6.4
27/03:30am -1.9 -6.3 -2.6 95 0.2 W 11 26 6 14 - - 5.4
27/03:00am -2.0 -6.4 -2.7 95 0.2 W 11 37 6 20 - - 4.8
27/02:30am -2.1 -6.2 -2.8 95 0.2 W 9 28 5 15 - - 4.4
27/02:00am -2.4 -6.5 -3.2 94 0.2 W 9 24 5 13 - - 4.0
27/01:30am -2.7 -7.6 -3.4 95 0.1 W 13 33 7 18 - - 3.6
27/01:00am -3.0 -7.9 -3.8 94 0.1 WNW 13 37 7 20 - - 3.4
27/12:30am -3.3 -8.3 -4.1 94 0.1 W 13 32 7 17 - - 3.2
27/12:00am -3.5 -9.8 -4.3 94 0.1 W 20 39 11 21 - - 2.8
 
Date/Time
EST
Temp
°C
App
Temp
°C
Dew
Point
°C
Rel
Hum
%
Delta-T
°C
Wind Press
QNH
hPa
Press
MSL
hPa
Rain since
9am
mm
Dir  Spd
km/h
Gust
km/h
Spd
kts
Gust
kts
26/11:30pm -3.4 -12.6 -4.2 94 0.1 W 35 54 19 29 - - 2.8
26/11:10pm -3.2 -11.0 -4.0 94 0.1 W 28 50 15 27 - - 2.4
26/11:00pm -3.4 -8.8 -4.2 94 0.1 W 15 43 8 23 - - 2.2
26/10:40pm -3.6 -11.5 -4.6 93 0.2 W 28 50 15 27 - - 1.8
26/10:30pm -3.5 -9.9 -4.5 93 0.2 W 20 41 11 22 - - 1.8
26/10:00pm -3.7 -10.8 -4.8 92 0.2 W 24 43 13 23 - - 1.8
26/09:30pm -3.7 -8.7 -4.5 94 0.1 W 13 33 7 18 - - 1.8
26/09:00pm -3.6 -9.9 -4.4 94 0.1 W 20 48 11 26 - - 1.6
26/08:30pm -3.5 -9.9 -4.5 93 0.2 W 20 52 11 28 - - 1.6
26/08:00pm -3.4 -12.2 -4.2 94 0.1 W 33 59 18 32 - - 1.0
26/07:51pm -3.6 -11.5 -4.6 93 0.2 W 28 54 15 29 - - 1.0
26/07:30pm -3.4 -9.7 -4.2 94 0.1 W 20 44 11 24 - - 0.6
26/07:00pm -3.6 -11.5 -4.4 94 0.1 W 28 70 15 38 - - 0.4
26/06:57pm -3.6 -11.5 -4.4 94 0.1 W 28 70 15 38 - - 0.4
26/06:34pm -3.6 -11.5 -4.4 94 0.1 W 28 52 15 28 - - 0.4
26/06:30pm -3.6 -11.1 -4.4 94 0.1 W 26 52 14 28 - - 0.4
26/06:00pm -3.7 -14.0 -4.5 94 0.1 W 41 74 22 40 - - 0.4
26/05:30pm -3.4 -12.0 -4.1 95 0.1 W 32 65 17 35 - - 0.4
26/05:00pm -3.5 -12.3 -4.2 95 0.1 W 33 61 18 33 - - 0.4
26/04:30pm -3.7 -14.0 -4.5 94 0.1 W 41 70 22 38 - - 0.4
26/04:00pm -3.5 -14.2 -4.3 94 0.1 W 43 74 23 40 - - 0.4
26/03:30pm -3.6 -14.5 -4.6 93 0.2 W 44 69 24 37 - - 0.4
26/03:00pm -3.1 -11.9 -4.1 93 0.2 W 33 61 18 33 - - 0.4
26/02:30pm -3.4 -14.1 -4.5 92 0.2 W 43 70 23 38 - - 0.4
26/02:00pm -3.3 -12.5 -4.4 92 0.2 W 35 65 19 35 - - 0.2
26/01:30pm -3.4 -12.0 -4.5 92 0.2 W 32 61 17 33 - - 0.2
26/01:00pm -3.4 -13.4 -4.8 90 0.3 W 39 63 21 34 - - 0.2
26/12:30pm -3.5 -12.4 -5.0 89 0.4 W 33 65 18 35 - - 0.2
26/12:00pm -3.5 -13.1 -4.9 90 0.3 W 37 61 20 33 - - 0.2
26/11:30am -3.6 -12.5 -5.0 90 0.3 W 33 61 18 33 - - 0.2
26/11:00am -3.5 -14.5 -5.2 88 0.4 W 44 72 24 39 - - 0.2
26/10:30am -3.8 -13.5 -5.6 87 0.4 W 37 65 20 35 - - 0.2
26/10:01am -4.1 -12.8 -5.5 90 0.3 W 32 54 17 29 - - 0.2
26/10:00am -4.1 -12.8 -5.5 90 0.3 W 32 50 17 27 - - 0.2
26/09:30am -3.9 -13.2 -5.3 90 0.3 W 35 59 19 32 - - 0.2
26/09:00am -4.4 -14.5 -5.9 89 0.3 WNW 39 74 21 40 - - 27.0
26/08:30am -4.9 -14.7 -6.3 90 0.3 W 37 61 20 33 - - 26.8
26/08:01am -4.6 -12.6 -5.8 91 0.2 W 28 57 15 31 - - 26.8
26/08:00am -4.6 -11.9 -5.8 91 0.2 W 24 57 13 31 - - 26.8
26/07:31am -4.8 -15.3 -6.0 91 0.2 W 41 72 22 39 - - 26.8
26/07:30am -4.8 -15.3 -6.2 90 0.3 W 41 65 22 35 - - 26.8
26/07:00am -4.9 -13.3 -6.0 92 0.2 W 30 61 16 33 - - 26.6
26/06:49am -4.9 -12.9 -6.0 92 0.2 W 28 52 15 28 - - 26.6
26/06:30am -4.2 -11.4 -5.2 93 0.2 W 24 48 13 26 - - 26.4
26/06:00am -4.3 -12.3 -5.4 92 0.2 W 28 50 15 27 - - 26.0
26/05:47am -4.4 -12.4 -5.5 92 0.2 W 28 61 15 33 - - 25.8
26/05:30am -4.1 -12.4 -5.1 93 0.2 W 30 50 16 27 - - 25.6
26/05:00am -4.4 -14.1 -5.5 92 0.2 WNW 37 63 20 34 - - 25.4
26/04:30am -4.3 -12.6 -5.3 93 0.2 W 30 54 16 29 - - 25.2
26/04:00am -4.0 -12.7 -4.8 94 0.1 W 32 57 17 31 - - 25.2
26/03:30am -3.7 -13.3 -4.7 93 0.2 WNW 37 69 20 37 - - 25.2
26/03:00am -3.5 -12.3 -4.3 94 0.1 W 33 72 18 39 - - 24.8
26/02:36am -3.3 -12.5 -4.3 93 0.2 WNW 35 69 19 37 - - 24.4
26/02:31am -3.3 -11.2 -4.3 93 0.2 WNW 28 50 15 27 - - 24.4
26/02:30am -3.3 -10.8 -4.3 93 0.2 WNW 26 50 14 27 - - 24.2
26/02:00am -1.7 -11.0 -2.4 95 0.2 W 37 69 20 37 - - 23.2
26/01:50am -1.5 -7.6 -2.2 95 0.2 W 20 59 11 32 - - 22.8
26/01:30am -1.5 -5.5 -2.2 95 0.2 WNW 9 39 5 21 - - 21.8
26/01:00am -1.4 -5.8 -2.1 95 0.2 WNW 11 41 6 22 - - 20.6
26/12:30am -1.3 -6.4 -2.0 95 0.2 WNW 15 41 8 22 - - 19.0
26/12:00am -1.2 -6.3 -2.0 94 0.2 W 15 43 8 23 - - 17.6
 
Date/Time
EST
Temp
°C
App
Temp
°C
Dew
Point
°C
Rel
Hum
%
Delta-T
°C
Wind Press
QNH
hPa
Press
MSL
hPa
Rain since
9am
mm
Dir  Spd
km/h
Gust
km/h
Spd
kts
Gust
kts
25/11:30pm -1.3 -6.4 -2.1 94 0.2 WNW 15 43 8 23 - - 16.2
25/11:00pm -1.5 -5.5 -2.3 94 0.2 NW 9 30 5 16 - - 14.6
25/10:30pm -1.5 -5.9 -2.3 94 0.2 NW 11 35 6 19 - - 12.8
25/10:00pm -1.6 -6.0 -2.4 94 0.2 WNW 11 37 6 20 - - 11.0
25/09:30pm -1.6 -6.0 -2.4 94 0.2 NW 11 33 6 18 - - 9.8
25/09:00pm -2.1 -7.3 -2.9 94 0.2 WNW 15 41 8 22 - - 8.8
25/08:30pm -1.8 -5.9 -2.8 93 0.3 NW 9 26 5 14 - - 8.0
25/08:00pm -1.9 -6.0 -2.9 93 0.3 W 9 28 5 15 - - 7.0
25/07:30pm -2.3 -7.6 -3.3 93 0.3 NW 15 41 8 22 - - 6.0
25/07:01pm -1.9 -9.6 -2.7 94 0.2 W 28 50 15 27 - - 5.4
25/07:00pm -1.9 -9.6 -2.7 94 0.2 W 28 50 15 27 - - 5.2
25/06:56pm -1.8 -8.7 -2.6 94 0.2 W 24 50 13 27 - - 5.2
25/06:30pm -1.2 -5.5 -2.0 94 0.2 W 11 28 6 15 - - 4.2
25/06:00pm -1.8 -7.0 -3.1 91 0.4 WNW 15 37 8 20 - - 3.6
25/05:57pm -1.7 -6.9 -3.0 91 0.4 WNW 15 35 8 19 - - 3.6
25/05:31pm -1.6 -8.9 -2.6 93 0.3 W 26 65 14 35 - - 3.2
25/05:30pm -1.7 -8.2 -2.7 93 0.3 W 22 57 12 31 - - 3.2
25/05:00pm -1.4 -6.6 -2.5 92 0.3 W 15 44 8 24 - - 2.8
25/04:30pm -1.1 -8.7 -2.4 91 0.4 W 28 61 15 33 - - 2.2
25/04:00pm -1.3 -10.2 -2.3 93 0.3 W 35 65 19 35 - - 2.0
25/03:30pm -1.5 -12.9 -2.3 94 0.2 W 48 70 26 38 - - 1.8
25/03:00pm -1.3 -12.0 -2.3 93 0.3 W 44 76 24 41 - - 1.6
25/02:30pm -1.6 -12.7 -2.7 92 0.3 W 46 83 25 45 - - 1.4
25/02:28pm -1.6 -12.7 -2.7 92 0.3 W 46 83 25 45 - - 1.4
25/02:00pm -1.8 -10.8 -3.1 91 0.4 W 35 63 19 34 - - 1.4
25/01:30pm -2.1 -11.5 -2.9 94 0.2 W 37 61 20 33 - - 1.4
25/01:00pm -2.0 -10.7 -3.1 92 0.3 W 33 63 18 34 - - 1.2
25/12:30pm -1.8 -11.7 -3.5 88 0.5 WNW 39 59 21 32 - - 1.2
25/12:00pm -1.6 -9.7 -3.3 88 0.5 W 30 52 16 28 - - 1.2
25/11:36am -1.7 -9.5 -3.4 88 0.5 WNW 28 46 15 25 - - 1.0
25/11:30am -1.7 -9.9 -3.6 87 0.6 WNW 30 46 16 25 - - 1.0
25/11:00am -1.9 -9.3 -3.6 88 0.5 WNW 26 39 14 21 - - 1.0
25/10:30am -2.0 -10.2 -3.7 88 0.5 WNW 30 48 16 26 - - 1.0
25/10:01am -2.0 -10.2 -3.9 87 0.6 WNW 30 54 16 29 - - 1.0
25/10:00am -2.1 -9.9 -4.0 87 0.6 WNW 28 46 15 25 - - 1.0
25/09:30am -2.1 -9.9 -3.7 89 0.5 WNW 28 46 15 25 - - 0.6
25/09:25am -2.3 -10.1 -3.9 89 0.5 WNW 28 46 15 25 - - 0.6
25/09:00am -2.6 -8.3 -4.0 90 0.4 W 17 41 9 22 - - 16.6
25/08:30am -2.5 -10.0 -4.2 88 0.5 W 26 41 14 22 - - 16.6
25/08:18am -2.5 -10.7 -4.1 89 0.5 W 30 50 16 27 - - 16.6
25/08:17am -2.5 -11.1 -4.1 89 0.5 W 32 50 17 27 - - 16.6
25/08:00am -2.6 -7.2 -3.9 91 0.3 W 11 30 6 16 - - 16.4
25/07:30am -3.2 -9.3 -4.3 92 0.2 WNW 19 33 10 18 - - 16.0
25/07:00am -3.3 -8.7 -4.4 92 0.2 W 15 35 8 19 - - 15.8
25/06:30am -3.3 -10.8 -4.7 90 0.3 WNW 26 44 14 24 - - 15.6
25/06:00am -3.5 -9.3 -4.8 91 0.3 WNW 17 28 9 15 - - 15.4
25/05:30am -3.5 -9.3 -4.8 91 0.3 W 17 28 9 15 - - 14.4
25/05:00am -3.5 -11.0 -4.8 91 0.3 W 26 46 14 25 - - 14.0
25/04:41am -3.3 -11.6 -4.6 91 0.3 W 30 50 16 27 - - 14.0
25/04:30am -3.3 -11.2 -4.6 91 0.3 W 28 44 15 24 - - 13.8
25/04:00am -3.3 -10.0 -4.6 91 0.3 W 22 46 12 25 - - 13.4
25/03:30am -3.2 -8.2 -4.3 92 0.2 W 13 26 7 14 - - 13.0
25/03:00am -3.3 -9.1 -4.4 92 0.2 W 17 41 9 22 - - 12.6
25/02:30am -3.3 -10.8 -4.6 91 0.3 WNW 26 39 14 21 - - 12.0
25/02:00am -3.2 -9.5 -4.3 92 0.2 W 20 43 11 23 - - 11.4
25/01:33am -3.3 -11.2 -4.7 90 0.3 WNW 28 50 15 27 - - 11.0
25/01:30am -3.3 -10.4 -4.6 91 0.3 W 24 46 13 25 - - 11.0
25/01:10am -3.2 -11.1 -4.3 92 0.2 W 28 50 15 27 - - 10.8
25/01:00am -3.1 -9.8 -4.2 92 0.2 W 22 37 12 20 - - 10.6
25/12:30am -2.9 -9.2 -3.9 93 0.2 W 20 39 11 21 - - 10.0
25/12:00am -2.5 -6.2 -3.3 94 0.2 WNW 7 19 4 10 - - 8.8
 
Date/Time
EST
Temp
°C
App
Temp
°C
Dew
Point
°C
Rel
Hum
%
Delta-T
°C
Wind Press
QNH
hPa
Press
MSL
hPa
Rain since
9am
mm
Dir  Spd
km/h
Gust
km/h
Spd
kts
Gust
kts
24/11:30pm -2.3 -9.3 -3.3 93 0.3 W 24 35 13 19 - - 7.8
24/11:00pm -2.6 -8.9 -3.7 92 0.3 W 20 37 11 20 - - 7.2
24/10:39pm -2.6 -10.4 -3.4 94 0.2 W 28 46 15 25 - - 7.0
24/10:30pm -2.8 -11.5 -3.5 95 0.1 W 33 50 18 27 - - 7.0
24/10:00pm -3.3 -11.9 -4.0 95 0.1 W 32 54 17 29 - - 6.8
24/09:30pm -3.1 -10.9 -4.1 93 0.2 W 28 56 15 30 - - 6.8
24/09:29pm -3.1 -10.6 -4.1 93 0.2 W 26 56 14 30 - - 6.8
24/09:26pm -2.8 -9.5 -3.9 92 0.3 W 22 52 12 28 - - 6.8

Other Formats:

Comma delimited format used in spreadsheet applications
http://www.bom.gov.au/fwo/IDN60801/IDN60801.94915.axf

JavaScript Object Notation format (JSON) in row-major order
http://www.bom.gov.au/fwo/IDN60801/IDN60801.94915.json